Time;durP1;ratioP1;P1;durP2;ratioP2;P2;SDS_P1;SDS_P2;PMS_P1;PMS_P2;Temp;Humidity;BMP_temperature;BMP_pressure;BME280_temperature;BME280_humidity;BME280_pressure;Samples;Min_cycle;Max_cycle;Signal;HPM_P1;HPM_P2
2021/12/10 11:20:23;;;;;;;0.83;0.60;;;4.80;99.90;;;;;;4964452;23;20814;-75
2021/12/10 11:22:52;;;;;;;1.10;0.80;;;4.80;99.90;;;;;;4974933;28;20211;-75
2021/12/10 11:25:23;;;;;;;0.93;0.80;;;4.80;99.90;;;;;;4975642;28;20218;-78
2021/12/10 11:27:51;;;;;;;0.87;0.63;;;4.80;99.90;;;;;;4959070;28;20228;-75
2021/12/10 11:30:22;;;;;;;1.47;0.83;;;4.90;99.90;;;;;;4956101;28;20208;-75
2021/12/10 11:32:53;;;;;;;1.80;0.90;;;5.00;99.90;;;;;;4956220;28;20243;-75
2021/12/10 11:35:24;;;;;;;1.30;1.00;;;5.20;99.90;;;;;;4956431;28;20216;-75
2021/12/10 11:37:58;;;;;;;2.47;1.20;;;5.00;99.90;;;;;;4956226;28;20227;-75
2021/12/10 11:40:38;;;;;;;1.60;1.20;;;4.80;99.90;;;;;;4956403;28;20214;-75
2021/12/10 11:43:17;;;;;;;3.17;1.60;;;4.80;99.90;;;;;;4955543;28;20219;-78
2021/12/10 11:46:02;;;;;;;1.87;1.17;;;4.60;99.90;;;;;;4955445;28;20666;-77
2021/12/10 11:48:31;;;;;;;1.40;1.13;;;4.30;99.90;;;;;;4955312;28;20654;-77
2021/12/10 11:51:10;;;;;;;1.97;1.13;;;4.30;99.90;;;;;;4950646;28;20208;-78
2021/12/10 11:53:44;;;;;;;2.00;1.20;;;4.20;99.90;;;;;;4936327;29;20232;-78
2021/12/10 11:56:15;;;;;;;1.87;1.33;;;4.30;99.90;;;;;;4936299;29;20235;-77
2021/12/10 11:58:42;;;;;;;2.73;1.27;;;4.30;99.90;;;;;;4937780;29;20219;-77
2021/12/10 12:01:18;;;;;;;3.17;1.70;;;4.40;99.90;;;;;;4954921;28;20554;-78
2021/12/10 12:03:45;;;;;;;3.00;1.63;;;4.40;99.90;;;;;;4955175;28;20211;-78
2021/12/10 12:06:19;;;;;;;4.37;1.83;;;4.30;99.90;;;;;;4954972;28;20224;-77
2021/12/10 12:08:46;;;;;;;2.43;1.53;;;4.30;99.90;;;;;;4955290;28;20211;-78
2021/12/10 12:11:13;;;;;;;2.57;1.80;;;4.30;99.90;;;;;;4955388;28;20212;-77
2021/12/10 12:13:49;;;;;;;3.23;1.67;;;4.10;99.90;;;;;;4954805;28;20736;-77
2021/12/10 12:16:18;;;;;;;3.03;2.17;;;4.20;99.90;;;;;;4954710;28;20606;-78
2021/12/10 12:18:47;;;;;;;2.67;1.80;;;4.10;99.90;;;;;;4955136;28;20215;-77
2021/12/10 12:27:13;;;;;;;2.83;1.70;;;4.10;99.90;;;;;;4955117;28;20227;-77
2021/12/10 12:29:44;;;;;;;7.07;2.50;;;4.00;99.90;;;;;;4954940;28;20266;-78
2021/12/10 12:32:13;;;;;;;2.70;2.00;;;4.10;99.90;;;;;;4954571;28;20212;-77
2021/12/10 12:34:40;;;;;;;4.37;2.50;;;4.20;99.90;;;;;;4935229;29;20580;-78
2021/12/10 12:37:09;;;;;;;4.63;2.50;;;4.10;99.90;;;;;;4935622;29;20711;-77
2021/12/10 12:39:41;;;;;;;5.53;1.90;;;4.10;99.90;;;;;;4953899;29;20204;-77
2021/12/10 12:42:19;;;;;;;3.47;2.17;;;4.10;99.90;;;;;;4953106;28;20200;-77
2021/12/10 12:44:48;;;;;;;4.73;2.20;;;4.10;99.90;;;;;;4954838;28;20216;-78
2021/12/10 12:47:17;;;;;;;1.87;1.30;;;4.00;99.90;;;;;;4955118;28;20238;-77
2021/12/10 12:50:04;;;;;;;2.93;1.73;;;4.10;99.90;;;;;;4954921;28;20208;-79
2021/12/10 12:52:38;;;;;;;3.67;1.70;;;4.10;99.90;;;;;;4954886;28;20208;-78
2021/12/10 12:55:23;;;;;;;1.63;1.10;;;4.10;99.90;;;;;;4954946;28;20232;-77
2021/12/10 12:57:56;;;;;;;2.33;1.53;;;4.00;99.90;;;;;;4954241;28;20231;-78
2021/12/10 13:00:27;;;;;;;6.23;1.83;;;4.10;99.90;;;;;;4954373;28;20208;-77
2021/12/10 13:02:58;;;;;;;2.27;1.50;;;4.20;99.90;;;;;;4954531;28;20239;-78
2021/12/10 13:05:41;;;;;;;4.37;1.67;;;4.20;99.90;;;;;;4954356;28;20666;-77
2021/12/10 13:08:10;;;;;;;2.97;1.87;;;4.20;99.90;;;;;;4954889;28;20234;-79
2021/12/10 13:10:46;;;;;;;2.77;1.70;;;4.30;99.90;;;;;;4954650;28;20658;-77
2021/12/10 13:13:23;;;;;;;4.00;1.77;;;4.20;99.90;;;;;;4954547;28;20207;-78
2021/12/10 13:15:51;;;;;;;5.47;1.87;;;4.20;99.90;;;;;;4954218;28;20669;-78
2021/12/10 13:18:22;;;;;;;6.63;2.93;;;4.40;99.90;;;;;;4953518;28;20263;-78
2021/12/10 13:20:52;;;;;;;3.57;2.10;;;4.40;99.90;;;;;;4954045;28;20311;-77
2021/12/10 13:23:22;;;;;;;4.27;2.17;;;4.20;99.90;;;;;;4954742;28;20239;-78
2021/12/10 13:25:54;;;;;;;6.43;3.30;;;4.20;99.90;;;;;;4954364;28;20212;-78
2021/12/10 13:28:21;;;;;;;4.57;2.50;;;4.10;99.90;;;;;;4953660;28;20200;-78
2021/12/10 13:30:50;;;;;;;6.87;3.03;;;4.10;99.90;;;;;;4954365;28;20212;-78
2021/12/10 13:33:19;;;;;;;6.50;2.80;;;3.90;99.90;;;;;;4953683;28;20693;-77
2021/12/10 13:35:47;;;;;;;4.47;2.97;;;4.00;99.90;;;;;;4954294;28;20512;-78
2021/12/10 13:38:14;;;;;;;5.03;2.90;;;4.00;99.90;;;;;;4954661;28;20208;-78
2021/12/10 13:40:43;;;;;;;5.90;3.53;;;4.20;99.90;;;;;;4954401;28;20228;-78
2021/12/10 13:43:14;;;;;;;7.57;4.30;;;4.20;99.90;;;;;;4954184;28;20208;-78
2021/12/10 13:45:44;;;;;;;6.93;3.87;;;4.20;99.90;;;;;;4953873;28;20208;-78
2021/12/10 13:48:14;;;;;;;9.53;4.20;;;4.20;99.90;;;;;;4954140;28;20671;-77
2021/12/10 13:50:44;;;;;;;6.53;3.80;;;4.30;99.90;;;;;;4953775;28;20396;-77
2021/12/10 13:53:13;;;;;;;8.17;4.60;;;4.20;99.90;;;;;;4954306;28;20250;-78
2021/12/10 13:55:42;;;;;;;8.97;4.73;;;4.10;99.90;;;;;;4957816;28;20219;-77
2021/12/10 13:58:19;;;;;;;6.27;3.87;;;4.20;99.90;;;;;;4957723;28;20613;-78
2021/12/10 14:00:52;;;;;;;7.57;4.30;;;4.20;99.90;;;;;;4957243;28;20199;-78
2021/12/10 14:03:38;;;;;;;7.57;4.70;;;4.10;99.90;;;;;;4957686;28;20208;-78
2021/12/10 14:06:05;;;;;;;8.07;4.03;;;4.00;99.90;;;;;;4957345;28;20283;-78
2021/12/10 14:08:33;;;;;;;7.10;4.23;;;4.20;99.90;;;;;;4957442;28;20218;-78
2021/12/10 14:11:12;;;;;;;6.63;4.27;;;4.20;99.90;;;;;;4957303;28;20666;-78
2021/12/10 14:13:41;;;;;;;6.77;4.17;;;4.30;99.90;;;;;;4955959;28;20231;-78
2021/12/10 14:16:11;;;;;;;5.90;3.60;;;4.30;99.90;;;;;;4955458;28;20224;-78
2021/12/10 14:18:40;;;;;;;5.80;3.33;;;4.20;99.90;;;;;;4952351;29;20267;-78
2021/12/10 14:21:10;;;;;;;7.40;4.40;;;4.10;99.90;;;;;;4956419;28;20574;-78
2021/12/10 14:23:40;;;;;;;8.97;4.57;;;4.10;99.90;;;;;;4955748;28;20200;-78
2021/12/10 14:26:13;;;;;;;5.97;3.77;;;4.20;99.90;;;;;;4955558;28;20220;-77
2021/12/10 14:28:43;;;;;;;6.43;3.30;;;4.20;99.90;;;;;;4953418;29;20272;-78
2021/12/10 14:31:13;;;;;;;6.97;3.50;;;4.20;99.90;;;;;;4956324;28;20226;-78
2021/12/10 14:33:43;;;;;;;5.43;3.23;;;4.20;99.90;;;;;;4948707;28;20243;-77
2021/12/10 14:36:19;;;;;;;6.80;4.00;;;4.20;99.90;;;;;;4937299;29;20239;-77
2021/12/10 14:38:49;;;;;;;6.30;3.20;;;4.30;99.90;;;;;;4937857;29;20213;-78
2021/12/10 14:41:20;;;;;;;5.43;3.90;;;4.20;99.90;;;;;;4938003;29;20213;-77
2021/12/10 14:43:50;;;;;;;6.67;3.70;;;4.10;99.90;;;;;;4956125;28;20214;-77
2021/12/10 14:46:34;;;;;;;5.90;4.03;;;4.20;99.90;;;;;;4956265;28;20232;-77
2021/12/10 14:49:20;;;;;;;6.93;3.80;;;4.30;99.90;;;;;;4956689;28;20212;-78
2021/12/10 14:52:05;;;;;;;5.60;3.20;;;4.30;99.90;;;;;;4956590;28;20219;-78
2021/12/10 14:54:35;;;;;;;7.53;3.50;;;4.30;99.90;;;;;;4956878;28;20240;-77
2021/12/10 14:57:02;;;;;;;9.13;4.00;;;4.30;99.90;;;;;;4956124;28;20224;-78
2021/12/10 14:59:37;;;;;;;13.00;3.83;;;4.20;99.90;;;;;;4956546;28;20208;-78
2021/12/10 15:02:12;;;;;;;6.13;3.50;;;4.10;99.90;;;;;;4954401;28;20204;-77
2021/12/10 15:04:45;;;;;;;4.73;2.90;;;4.00;99.90;;;;;;4955603;28;20210;-77
2021/12/10 15:07:23;;;;;;;7.97;3.97;;;4.00;99.90;;;;;;4936506;29;20710;-77
2021/12/10 15:10:23;;;;;;;4.83;3.47;;;4.00;99.90;;;;;;4953262;28;20235;-77
2021/12/10 15:13:08;;;;;;;6.20;3.97;;;4.10;99.90;;;;;;4953318;29;20683;-78
2021/12/10 15:16:04;;;;;;;8.43;4.30;;;3.90;99.90;;;;;;4955998;28;20236;-76
2021/12/10 15:18:39;;;;;;;6.50;4.23;;;3.90;99.90;;;;;;4936750;29;20208;-77
2021/12/10 15:21:23;;;;;;;6.83;4.20;;;3.80;99.90;;;;;;4936550;29;20666;-77
2021/12/10 15:24:01;;;;;;;6.67;4.17;;;3.80;99.90;;;;;;4937343;29;20213;-77
2021/12/10 15:26:31;;;;;;;6.43;4.10;;;3.80;99.90;;;;;;4937288;29;20231;-75
2021/12/10 15:28:59;;;;;;;7.63;4.33;;;3.80;99.90;;;;;;4945941;29;20223;-77
2021/12/10 15:31:42;;;;;;;10.17;5.17;;;3.70;99.90;;;;;;5110454;27;20604;-75
2021/12/10 15:34:09;;;;;;;8.87;4.83;;;3.80;99.90;;;;;;5096861;28;20533;-75
2021/12/10 15:36:36;;;;;;;10.10;4.40;;;3.80;99.90;;;;;;5110331;28;20709;-75
2021/12/10 15:39:04;;;;;;;10.00;5.17;;;3.70;99.90;;;;;;5099479;28;20198;-75
2021/12/10 15:41:35;;;;;;;10.50;5.10;;;3.60;99.90;;;;;;5090299;28;20211;-75
2021/12/10 15:44:05;;;;;;;8.20;4.83;;;3.50;99.90;;;;;;5089924;28;20208;-74
2021/12/10 15:46:34;;;;;;;8.13;4.60;;;3.60;99.90;;;;;;5086936;28;20681;-76
2021/12/10 15:49:11;;;;;;;9.20;4.83;;;3.50;99.90;;;;;;5089158;28;20205;-75
2021/12/10 15:51:41;;;;;;;7.27;4.27;;;3.60;99.90;;;;;;5098624;28;20225;-76
2021/12/10 15:54:12;;;;;;;7.87;4.73;;;3.60;99.90;;;;;;5110402;28;20567;-76
2021/12/10 15:56:42;;;;;;;7.43;5.03;;;3.50;99.90;;;;;;5101784;28;20226;-75
2021/12/10 15:59:11;;;;;;;8.83;4.43;;;3.60;99.90;;;;;;5089257;28;20209;-76
2021/12/10 16:01:40;;;;;;;7.77;4.33;;;3.50;99.90;;;;;;5089809;28;20242;-76
2021/12/10 16:04:11;;;;;;;9.47;4.70;;;3.50;99.90;;;;;;5080857;28;20215;-74
2021/12/10 16:06:40;;;;;;;8.13;4.83;;;3.50;99.90;;;;;;5068947;28;20581;-75
2021/12/10 16:09:11;;;;;;;8.00;4.77;;;3.50;99.90;;;;;;5069254;28;20203;-75
2021/12/10 16:11:38;;;;;;;7.37;4.50;;;3.60;99.90;;;;;;5069233;28;20235;-75
2021/12/10 16:14:07;;;;;;;9.57;5.17;;;3.50;99.90;;;;;;5069426;28;20206;-75
2021/12/10 16:16:37;;;;;;;10.00;5.43;;;3.50;99.90;;;;;;5069076;28;20225;-75
2021/12/10 16:19:07;;;;;;;6.80;4.30;;;3.60;99.90;;;;;;5069344;28;20239;-75
2021/12/10 16:21:39;;;;;;;6.70;4.40;;;3.40;99.90;;;;;;5069688;28;20218;-76
2021/12/10 16:24:12;;;;;;;7.43;4.17;;;3.30;99.90;;;;;;5068827;28;20229;-76
2021/12/10 16:26:43;;;;;;;7.93;4.37;;;3.30;99.90;;;;;;5072837;28;20230;-75
2021/12/10 16:29:14;;;;;;;5.60;3.97;;;3.30;99.90;;;;;;5086453;28;20213;-76
2021/12/10 16:31:42;;;;;;;6.53;3.80;;;3.20;99.90;;;;;;5068014;28;20235;-76
2021/12/10 16:34:16;;;;;;;6.83;3.80;;;3.20;99.90;;;;;;5078866;28;20328;-74
2021/12/10 16:36:48;;;;;;;6.97;4.20;;;3.10;99.90;;;;;;5088944;28;20623;-75
2021/12/10 16:39:17;;;;;;;6.20;3.77;;;3.20;99.90;;;;;;5093038;28;20195;-76
2021/12/10 16:41:47;;;;;;;7.00;4.03;;;3.10;99.90;;;;;;5085773;28;20214;-75
2021/12/10 16:44:15;;;;;;;5.33;3.50;;;3.20;99.90;;;;;;5079300;28;20201;-76
2021/12/10 16:46:46;;;;;;;7.87;4.07;;;3.20;99.90;;;;;;5095506;28;20228;-75
2021/12/10 16:49:16;;;;;;;7.27;4.27;;;3.10;99.90;;;;;;5095251;28;20229;-76
2021/12/10 16:51:48;;;;;;;6.17;3.20;;;3.20;99.90;;;;;;5095140;28;20228;-76
2021/12/10 16:54:19;;;;;;;5.43;3.20;;;3.10;99.90;;;;;;5091846;28;20199;-76
2021/12/10 16:56:49;;;;;;;5.90;3.37;;;3.00;99.90;;;;;;5069327;28;20718;-76
2021/12/10 16:59:16;;;;;;;6.37;4.00;;;3.10;99.90;;;;;;5094936;28;20206;-75
2021/12/10 17:01:49;;;;;;;6.07;3.90;;;3.20;99.90;;;;;;5088780;28;20211;-75
2021/12/10 17:04:18;;;;;;;6.93;3.43;;;3.20;99.90;;;;;;5053107;28;20211;-75
2021/12/10 17:06:56;;;;;;;5.23;3.47;;;3.30;99.90;;;;;;5051892;28;20224;-75
2021/12/10 17:09:24;;;;;;;5.23;3.30;;;3.30;99.90;;;;;;5052791;28;20200;-75
2021/12/10 17:11:54;;;;;;;5.80;3.50;;;3.40;99.90;;;;;;5067537;28;20218;-75
2021/12/10 17:14:23;;;;;;;6.23;3.43;;;3.30;99.90;;;;;;5071096;28;20219;-75
2021/12/10 17:16:54;;;;;;;7.60;2.97;;;3.20;99.90;;;;;;5066776;28;20215;-75
2021/12/10 17:19:27;;;;;;;7.60;3.30;;;3.10;99.90;;;;;;5060931;28;20582;-75
2021/12/10 17:21:59;;;;;;;5.23;2.97;;;3.10;99.90;;;;;;5074117;28;20219;-75
2021/12/10 17:24:31;;;;;;;5.37;3.27;;;3.20;99.90;;;;;;5074530;28;20202;-75
2021/12/10 17:26:59;;;;;;;5.33;3.03;;;3.10;99.90;;;;;;5074342;28;20223;-75
2021/12/10 17:29:31;;;;;;;4.63;3.10;;;3.10;99.90;;;;;;5073729;28;20196;-75
2021/12/10 17:32:01;;;;;;;5.70;3.23;;;3.10;99.90;;;;;;5073082;28;20223;-75
2021/12/10 17:34:31;;;;;;;4.53;2.80;;;3.20;99.90;;;;;;5073912;28;20683;-75
2021/12/10 17:37:06;;;;;;;4.70;2.80;;;2.90;99.90;;;;;;5062755;28;20223;-75
2021/12/10 17:39:36;;;;;;;5.10;2.90;;;2.90;99.90;;;;;;5054191;28;20295;-75
2021/12/10 17:42:08;;;;;;;4.77;2.53;;;3.00;99.90;;;;;;5053858;28;20204;-75
2021/12/10 17:44:36;;;;;;;4.17;2.73;;;3.00;99.90;;;;;;5053923;28;20227;-75
2021/12/10 17:47:07;;;;;;;4.53;2.73;;;3.20;99.90;;;;;;5053995;28;20224;-75
2021/12/10 17:49:38;;;;;;;5.13;3.07;;;3.30;99.90;;;;;;5054101;28;20215;-75
2021/12/10 17:52:09;;;;;;;5.17;2.40;;;3.30;99.90;;;;;;5053644;28;20250;-75
2021/12/10 17:54:40;;;;;;;4.93;2.70;;;3.30;99.90;;;;;;5052522;28;20676;-75
2021/12/10 17:57:10;;;;;;;4.43;2.90;;;3.30;99.90;;;;;;5053714;28;20330;-75
2021/12/10 17:59:39;;;;;;;5.53;3.33;;;3.40;99.90;;;;;;5062687;28;20229;-75
2021/12/10 18:02:09;;;;;;;5.77;3.50;;;3.40;99.90;;;;;;5073610;28;20214;-75
2021/12/10 18:04:37;;;;;;;5.67;3.53;;;3.40;99.90;;;;;;5072540;28;20199;-74
2021/12/10 18:07:09;;;;;;;7.47;3.60;;;3.30;99.90;;;;;;5065549;28;20703;-74
2021/12/10 18:09:38;;;;;;;7.10;4.30;;;3.60;99.90;;;;;;5073587;28;20662;-74
2021/12/10 18:12:08;;;;;;;5.43;3.33;;;3.70;99.90;;;;;;5059518;28;20702;-75
2021/12/10 18:14:39;;;;;;;7.17;4.00;;;3.60;99.90;;;;;;5073633;28;20204;-74
2021/12/10 18:17:07;;;;;;;17.80;7.93;;;3.60;99.90;;;;;;5072618;28;20230;-75
2021/12/10 18:19:34;;;;;;;7.27;3.90;;;3.70;99.90;;;;;;5073996;28;20210;-74
2021/12/10 18:22:03;;;;;;;6.27;3.27;;;3.70;99.90;;;;;;5073409;28;20203;-74
2021/12/10 18:24:32;;;;;;;8.90;3.93;;;3.70;99.90;;;;;;5073118;28;20245;-74
2021/12/10 18:27:02;;;;;;;6.40;3.30;;;3.70;99.90;;;;;;5071096;28;20223;-74
2021/12/10 18:29:32;;;;;;;9.63;4.53;;;3.60;99.90;;;;;;5053315;28;20673;-75
2021/12/10 18:32:02;;;;;;;9.40;4.47;;;3.70;99.90;;;;;;5072179;28;20219;-74
2021/12/10 18:34:33;;;;;;;10.03;4.17;;;3.70;99.90;;;;;;5072923;28;20214;-74
2021/12/10 18:37:01;;;;;;;8.27;4.47;;;3.60;99.90;;;;;;5067748;28;20304;-74
2021/12/10 18:39:32;;;;;;;8.90;4.13;;;3.50;99.90;;;;;;5073050;28;20214;-74
2021/12/10 18:42:09;;;;;;;6.90;3.93;;;3.60;99.90;;;;;;5072279;28;20201;-75
2021/12/10 18:44:39;;;;;;;10.27;4.70;;;3.50;99.90;;;;;;5060257;28;20207;-74
2021/12/10 18:47:07;;;;;;;7.93;3.57;;;3.50;99.90;;;;;;5069935;28;20228;-75
2021/12/10 18:49:37;;;;;;;7.83;3.77;;;3.50;99.90;;;;;;5072703;28;20222;-75
2021/12/10 18:52:08;;;;;;;7.30;3.90;;;3.30;99.90;;;;;;5072498;28;20223;-75
2021/12/10 18:54:43;;;;;;;5.87;3.17;;;3.10;99.90;;;;;;5076326;28;20203;-75
2021/12/10 18:57:14;;;;;;;7.37;4.17;;;2.90;99.90;;;;;;5071115;28;20310;-75
2021/12/10 18:59:44;;;;;;;6.83;3.93;;;2.90;99.90;;;;;;5060112;28;20204;-75
2021/12/10 19:02:14;;;;;;;7.93;4.33;;;3.10;99.90;;;;;;5052958;28;20204;-75
2021/12/10 19:04:45;;;;;;;7.70;4.20;;;3.10;99.90;;;;;;5052352;28;20208;-75
2021/12/10 19:07:18;;;;;;;6.10;3.53;;;3.10;99.90;;;;;;5069720;28;20697;-75
2021/12/10 19:09:49;;;;;;;8.47;4.43;;;3.20;99.90;;;;;;5072541;28;20614;-75
2021/12/10 19:12:23;;;;;;;6.23;3.80;;;3.20;99.90;;;;;;5072957;28;20592;-75
2021/12/10 19:14:53;;;;;;;9.00;4.60;;;3.20;99.90;;;;;;5073110;28;20213;-75
2021/12/10 19:17:26;;;;;;;7.73;4.50;;;3.20;99.90;;;;;;5065260;28;20219;-74
2021/12/10 19:19:55;;;;;;;5.53;3.70;;;3.20;99.90;;;;;;5052696;28;20208;-74
2021/12/10 19:22:27;;;;;;;8.17;4.27;;;3.20;99.90;;;;;;5052889;28;20212;-74
2021/12/10 19:24:58;;;;;;;6.00;3.67;;;3.10;99.90;;;;;;5052897;28;20210;-74
2021/12/10 19:27:28;;;;;;;9.07;3.83;;;3.20;99.90;;;;;;5052779;28;20227;-74
2021/12/10 19:29:58;;;;;;;4.67;3.27;;;3.30;99.90;;;;;;5054014;28;20212;-75
2021/12/10 19:32:29;;;;;;;7.87;4.40;;;3.40;99.90;;;;;;5067314;28;20223;-74
2021/12/10 19:34:59;;;;;;;6.80;4.23;;;3.50;99.90;;;;;;5071941;28;20295;-75
2021/12/10 19:37:29;;;;;;;6.73;4.07;;;3.50;99.90;;;;;;5072544;28;20223;-74
2021/12/10 19:40:04;;;;;;;7.53;3.73;;;3.50;99.90;;;;;;5072818;28;20206;-74
2021/12/10 19:42:34;;;;;;;7.30;3.77;;;3.30;99.90;;;;;;5072368;28;20767;-75
2021/12/10 19:45:06;;;;;;;6.90;3.70;;;3.40;99.90;;;;;;5072219;28;20202;-75
2021/12/10 19:47:37;;;;;;;7.37;4.20;;;3.30;99.90;;;;;;5072310;28;20223;-77
2021/12/10 19:50:12;;;;;;;7.13;4.80;;;3.30;99.90;;;;;;5062844;28;20209;-75
2021/12/10 19:52:43;;;;;;;7.70;4.23;;;3.30;99.90;;;;;;5069445;28;20223;-74
2021/12/10 19:55:16;;;;;;;8.23;4.33;;;3.40;99.90;;;;;;5072512;28;20196;-75
2021/12/10 19:57:48;;;;;;;8.43;4.40;;;3.40;99.90;;;;;;5072520;28;20227;-75
2021/12/10 20:00:20;;;;;;;6.27;3.93;;;3.40;99.90;;;;;;5072199;28;20309;-76
2021/12/10 20:02:55;;;;;;;7.43;4.07;;;3.30;99.90;;;;;;5071656;28;20617;-75
2021/12/10 20:05:26;;;;;;;10.07;5.00;;;3.50;99.90;;;;;;5071210;28;20215;-76
2021/12/10 20:07:57;;;;;;;8.30;5.00;;;3.50;99.90;;;;;;5062818;28;20220;-75
2021/12/10 20:10:30;;;;;;;7.43;5.00;;;3.50;99.90;;;;;;5065758;28;20219;-75
2021/12/10 20:13:04;;;;;;;6.57;3.80;;;3.60;99.90;;;;;;5069786;28;20235;-75
2021/12/10 20:15:34;;;;;;;6.77;4.07;;;3.60;99.90;;;;;;5071319;28;20257;-76
2021/12/10 20:18:09;;;;;;;8.33;4.53;;;3.70;99.90;;;;;;5073478;28;20216;-75
2021/12/10 20:20:42;;;;;;;7.87;4.13;;;3.70;99.90;;;;;;5075437;28;20648;-75
2021/12/10 20:23:14;;;;;;;6.73;4.37;;;3.70;99.90;;;;;;5075609;28;20211;-76
2021/12/10 20:25:47;;;;;;;7.73;4.60;;;3.90;99.90;;;;;;5075669;28;20433;-75
2021/12/10 20:28:19;;;;;;;9.23;4.50;;;3.90;99.90;;;;;;5075702;28;20260;-75
2021/12/10 20:30:52;;;;;;;6.77;4.10;;;3.90;99.90;;;;;;5075140;28;20256;-76
2021/12/10 20:33:22;;;;;;;7.87;4.80;;;3.90;99.90;;;;;;5074874;28;20223;-75
2021/12/10 20:35:52;;;;;;;6.10;4.20;;;4.10;99.90;;;;;;5068201;28;20539;-75
2021/12/10 20:38:23;;;;;;;7.37;4.43;;;4.20;99.90;;;;;;5066504;28;20204;-76
2021/12/10 20:40:55;;;;;;;6.93;4.37;;;4.20;99.90;;;;;;5069089;28;20199;-75
2021/12/10 20:43:25;;;;;;;8.53;4.87;;;4.20;99.90;;;;;;5055089;28;20562;-75
2021/12/10 20:45:57;;;;;;;9.00;4.60;;;4.10;99.90;;;;;;5063054;28;20199;-75
2021/12/10 20:48:27;;;;;;;6.37;4.13;;;4.20;99.90;;;;;;5075454;28;20208;-76
2021/12/10 20:50:57;;;;;;;7.23;5.17;;;4.20;99.90;;;;;;5075141;28;20207;-76
2021/12/10 20:53:27;;;;;;;9.53;5.47;;;4.40;99.90;;;;;;5062568;28;20212;-75
2021/12/10 20:55:59;;;;;;;7.73;4.90;;;4.40;99.90;;;;;;5054982;28;20203;-76
2021/12/10 20:58:30;;;;;;;7.77;4.80;;;4.60;99.90;;;;;;5054988;28;20565;-75
2021/12/10 21:01:00;;;;;;;6.40;4.30;;;4.50;99.90;;;;;;5054784;28;20212;-75
2021/12/10 21:03:33;;;;;;;7.67;4.80;;;4.60;99.90;;;;;;5055187;28;20200;-76
2021/12/10 21:06:05;;;;;;;7.73;4.30;;;4.50;99.90;;;;;;5055033;28;20223;-75
2021/12/10 21:08:37;;;;;;;8.83;4.83;;;4.50;99.90;;;;;;5055104;28;20200;-75
2021/12/10 21:11:08;;;;;;;10.57;4.93;;;4.40;99.90;;;;;;5055251;28;20234;-75
2021/12/10 21:13:35;;;;;;;9.43;5.33;;;4.40;99.90;;;;;;5054675;28;20211;-75
2021/12/10 21:16:05;;;;;;;10.17;5.00;;;4.40;99.90;;;;;;5057855;28;20202;-76
2021/12/10 21:18:35;;;;;;;8.67;5.20;;;4.50;99.90;;;;;;5054612;28;20208;-76
2021/12/10 21:21:08;;;;;;;9.03;4.83;;;4.50;99.90;;;;;;5054641;28;20211;-76
2021/12/10 21:23:39;;;;;;;10.73;5.17;;;4.50;99.90;;;;;;5054870;28;20204;-76
2021/12/10 21:26:10;;;;;;;10.33;4.30;;;4.60;99.90;;;;;;5056218;28;20654;-76
2021/12/10 21:28:41;;;;;;;7.47;4.37;;;4.70;99.90;;;;;;5054972;28;20291;-76
2021/12/10 21:31:13;;;;;;;6.93;4.20;;;4.70;99.90;;;;;;5054743;28;20216;-75
2021/12/10 21:33:46;;;;;;;6.17;4.00;;;4.60;99.90;;;;;;5074714;28;20204;-76
2021/12/10 21:36:30;;;;;;;7.03;3.80;;;4.60;99.90;;;;;;5074424;28;20270;-76
2021/12/10 21:38:58;;;;;;;6.40;3.83;;;4.60;99.90;;;;;;5074318;28;20199;-76
2021/12/10 21:41:32;;;;;;;6.80;3.53;;;4.60;99.90;;;;;;5073604;28;20207;-76
2021/12/10 21:44:02;;;;;;;7.87;4.00;;;4.60;99.90;;;;;;5073244;28;20686;-76
2021/12/10 21:46:35;;;;;;;7.53;4.33;;;4.70;99.90;;;;;;5074221;28;20257;-76
2021/12/10 21:49:05;;;;;;;8.27;4.17;;;4.80;99.90;;;;;;5074042;28;20712;-76
2021/12/10 21:51:36;;;;;;;7.30;4.23;;;4.90;99.90;;;;;;5073799;28;20227;-76
2021/12/10 21:54:06;;;;;;;5.67;3.60;;;4.90;99.90;;;;;;5074091;28;20223;-76
2021/12/10 21:56:35;;;;;;;5.40;3.60;;;5.00;99.90;;;;;;5073857;28;20227;-76
2021/12/10 21:59:07;;;;;;;10.33;4.00;;;5.00;99.90;;;;;;5074398;28;20203;-76
2021/12/10 22:01:39;;;;;;;6.93;3.43;;;5.00;99.90;;;;;;5072973;28;20660;-76
2021/12/10 22:04:09;;;;;;;6.57;3.80;;;5.10;99.90;;;;;;5073286;28;20226;-76
2021/12/10 22:06:38;;;;;;;5.90;3.40;;;5.10;99.90;;;;;;5072896;28;20223;-76
2021/12/10 22:09:10;;;;;;;5.20;3.40;;;5.20;99.90;;;;;;5073691;28;20691;-75
2021/12/10 22:11:43;;;;;;;6.20;3.70;;;5.20;99.90;;;;;;5073523;28;20223;-76
2021/12/10 22:14:16;;;;;;;7.17;3.57;;;5.30;99.90;;;;;;5073686;28;20203;-76
2021/12/10 22:16:47;;;;;;;6.40;3.40;;;5.20;99.90;;;;;;5073044;28;20226;-76
2021/12/10 22:19:18;;;;;;;6.40;3.80;;;5.20;99.90;;;;;;5055144;28;20215;-76
2021/12/10 22:21:50;;;;;;;6.63;3.33;;;5.20;99.90;;;;;;5053508;28;20212;-76
2021/12/10 22:24:21;;;;;;;5.67;3.30;;;5.20;99.90;;;;;;5053473;28;20210;-76
2021/12/10 22:26:53;;;;;;;5.90;3.37;;;5.20;99.90;;;;;;5053222;28;20224;-76
2021/12/10 22:29:23;;;;;;;8.37;3.60;;;5.20;99.90;;;;;;5053251;28;20200;-76
2021/12/10 22:31:53;;;;;;;9.57;4.50;;;5.30;99.90;;;;;;5061684;28;20224;-76
2021/12/10 22:34:26;;;;;;;8.83;3.87;;;5.20;99.90;;;;;;5053675;28;20664;-76
2021/12/10 22:36:59;;;;;;;8.90;4.17;;;5.10;99.90;;;;;;5052602;28;20712;-76
2021/12/10 22:39:31;;;;;;;6.47;4.03;;;5.10;99.90;;;;;;5052373;28;20636;-76
2021/12/10 22:42:05;;;;;;;10.07;4.20;;;5.10;99.90;;;;;;5065502;28;20214;-76
2021/12/10 22:44:37;;;;;;;8.40;3.80;;;5.10;99.90;;;;;;5073201;28;20278;-76
2021/12/10 22:47:11;;;;;;;6.70;3.57;;;5.20;99.90;;;;;;5072692;28;20227;-76
2021/12/10 22:49:40;;;;;;;10.40;3.60;;;5.20;99.90;;;;;;5072849;28;20211;-76
2021/12/10 22:52:11;;;;;;;6.13;3.47;;;5.20;99.90;;;;;;5072794;28;20223;-76
2021/12/10 22:54:41;;;;;;;8.30;3.57;;;5.30;99.90;;;;;;5054979;28;20195;-76
2021/12/10 22:57:13;;;;;;;5.60;3.40;;;5.30;99.90;;;;;;5053335;28;20681;-76
2021/12/10 22:59:44;;;;;;;4.87;3.00;;;5.30;99.90;;;;;;5053097;28;20208;-75
2021/12/10 23:02:12;;;;;;;4.43;3.17;;;5.10;99.90;;;;;;5053047;28;20662;-76
2021/12/10 23:04:42;;;;;;;5.97;3.30;;;5.20;99.90;;;;;;5053057;28;20208;-76
2021/12/10 23:07:27;;;;;;;5.97;3.33;;;5.30;99.90;;;;;;5052706;28;20228;-76
2021/12/10 23:09:55;;;;;;;6.27;3.40;;;5.30;99.90;;;;;;5052983;28;20208;-76
2021/12/10 23:12:27;;;;;;;4.70;3.10;;;5.30;99.90;;;;;;5053193;28;20238;-76
2021/12/10 23:14:58;;;;;;;6.87;3.13;;;5.30;99.90;;;;;;5053004;28;20211;-76
2021/12/10 23:17:29;;;;;;;5.07;2.97;;;5.30;99.90;;;;;;5052694;28;20228;-76
2021/12/10 23:20:00;;;;;;;4.67;3.23;;;5.20;99.90;;;;;;5053029;28;20226;-76
2021/12/10 23:22:26;;;;;;;5.97;3.47;;;5.20;99.90;;;;;;5053042;28;20204;-76
2021/12/10 23:25:00;;;;;;;5.87;2.90;;;5.30;99.90;;;;;;5052521;28;20212;-76
2021/12/10 23:27:31;;;;;;;5.10;3.17;;;5.40;99.90;;;;;;5052343;28;20228;-76
2021/12/10 23:30:03;;;;;;;3.77;2.70;;;5.40;99.90;;;;;;5052324;28;20215;-76
2021/12/10 23:32:36;;;;;;;4.43;2.83;;;5.50;99.90;;;;;;5052424;28;20318;-76
2021/12/10 23:35:08;;;;;;;5.13;3.37;;;5.50;99.90;;;;;;5052824;28;20206;-76
2021/12/10 23:37:36;;;;;;;4.80;3.10;;;5.50;99.90;;;;;;5052528;28;20706;-76
2021/12/10 23:40:12;;;;;;;6.30;2.90;;;5.60;99.90;;;;;;5052469;28;20208;-76
2021/12/10 23:42:42;;;;;;;4.33;2.70;;;5.60;99.90;;;;;;5052463;28;20210;-76
2021/12/10 23:45:13;;;;;;;6.00;2.97;;;5.60;99.90;;;;;;5052364;28;20211;-76
2021/12/10 23:47:43;;;;;;;4.77;2.73;;;5.60;99.90;;;;;;5052385;28;20224;-76
2021/12/10 23:50:33;;;;;;;3.30;2.60;;;5.60;99.90;;;;;;5052578;28;20208;-76
2021/12/10 23:53:11;;;;;;;3.77;3.00;;;5.60;99.90;;;;;;5055507;28;20235;-76
2021/12/10 23:55:42;;;;;;;3.53;2.57;;;5.60;99.90;;;;;;5056252;28;20204;-76
2021/12/10 23:58:14;;;;;;;5.67;2.93;;;5.70;99.90;;;;;;5056576;28;20250;-77
